Flight Track Log - Related Links

Times and Time Zones

All times are in EDT time to prevent confusion due to time zone crossing. See the N292LK flight status page for this flight to view local times or setup timezone preferences in your user account.

Time Position Orientation Groundspeed Altitude Reporting Facility
EDT Latitude Longitude Course Direction KTS MPH feet Rate Location/Type
Thu 07:00:35 AM 40.2728 -83.0906 106° East 87 100 1,400  Level Indianapolis Center
Thu 07:01:47 AM 40.2642 -83.0481 105° East 102 117 2,100 567 Climbing Indianapolis Center
Thu 07:02:42 AM 40.2547 -83.0164 111° Southeast 102 117 2,600 522 Climbing Indianapolis Center
Thu 07:03:42 AM 40.2433 -82.9789 112° Southeast 117 135 3,100 496 Climbing Indianapolis Center
Thu 07:04:43 AM 40.2350 -82.9364 104° East 120 138 3,600 541 Climbing Indianapolis Center
Thu 07:05:44 AM 40.2242 -82.8936 108° East 119 137 4,200 545 Climbing Indianapolis Center
Thu 07:06:00 AM 40.2289 -82.8145 106° East  Level Estimated
Thu 07:06:44 AM 40.2133 -82.8533 109° East 117 135 4,700  Level Indianapolis Center
Thu 07:07:45 AM 40.2044 -82.8136 106° East 111 128 5,300 545 Climbing Indianapolis Center
Thu 07:08:45 AM 40.1953 -82.7767 108° East 103 119 5,800 472 Climbing Indianapolis Center
Thu 07:09:52 AM 40.1861 -82.7394 108° East 103 119 6,300 443 Climbing Indianapolis Center
Thu 07:10:47 AM 40.1789 -82.7056 106° East 104 120 6,700 365 Climbing Indianapolis Center
Thu 07:11:47 AM 40.1694 -82.6686 108° East 107 123 7,000 99 Climbing Indianapolis Center
Thu 07:12:48 AM 40.1569 -82.6228 110° East 143 165 6,900 -49 Descending Indianapolis Center
Thu 07:13:49 AM 40.1450 -82.5689 106° East 145 167 6,900  Level Indianapolis Center
Thu 07:14:49 AM 40.1322 -82.5258 111° Southeast 139 160 6,900  Level Indianapolis Center
Thu 07:16:19 AM 40.1111 -82.4575 112° Southeast 141 162 6,900  Level Indianapolis Center
Thu 07:17:20 AM 40.0972 -82.4100 111° Southeast 140 161 6,900  Level Indianapolis Center
Thu 07:18:21 AM 40.0819 -82.3606 112° Southeast 143 165 6,900  Level Indianapolis Center
Thu 07:19:21 AM 40.0653 -82.3044 111° Southeast 143 165 6,900  Level Indianapolis Center
Thu 07:20:22 AM 40.0506 -82.2564 112° Southeast 141 162 6,900  Level Indianapolis Center
Thu 07:21:23 AM 40.0356 -82.2069 112° Southeast 144 166 6,900 49 Level Indianapolis Center
Thu 07:22:24 AM 40.0208 -82.1583 112° Southeast 143 165 7,000  Climbing Indianapolis Center
Thu 07:23:25 AM 40.0053 -82.1089 112° Southeast 145 167 6,900 -49 Descending Indianapolis Center
Thu 07:24:26 AM 39.9914 -82.0603 110° East 143 165 6,900  Level Indianapolis Center
Thu 07:25:27 AM 39.9761 -82.0117 112° Southeast 142 163 6,900  Level Indianapolis Center
Thu 07:26:28 AM 39.9608 -81.9644 113° Southeast 142 163 6,900  Level Indianapolis Center
Thu 07:27:28 AM 39.9475 -81.9178 110° East 137 158 6,900  Level Indianapolis Center
Thu 07:28:29 AM 39.9358 -81.8681 107° East 141 162 6,900  Level Indianapolis Center
Thu 07:29:30 AM 39.9264 -81.8186 104° East 140 161 6,900 49 Level Indianapolis Center
Thu 07:30:31 AM 39.9175 -81.7689 103° East 140 161 7,000 49 Climbing Indianapolis Center
Thu 07:31:32 AM 39.9089 -81.7169 102° East 145 167 7,000  Level Indianapolis Center
Thu 07:32:33 AM 39.8992 -81.6681 105° East 139 160 7,000  Level Indianapolis Center
Thu 07:33:34 AM 39.8908 -81.6194 103° East 137 158 7,000  Level Indianapolis Center
Thu 07:34:35 AM 39.8822 -81.5681 102° East 142 163 7,000  Level Indianapolis Center
Thu 07:35:36 AM 39.8739 -81.5181 102° East 141 162 7,000  Level Indianapolis Center
Thu 07:36:37 AM 39.8650 -81.4678 103° East 140 161 7,000  Level Indianapolis Center
Thu 07:37:38 AM 39.8581 -81.4194 101° East 141 162 7,000  Level Indianapolis Center
Thu 07:38:39 AM 39.8492 -81.3700 103° East 140 161 7,000  Level Indianapolis Center
Thu 07:39:39 AM 39.8411 -81.3194 102° East 141 162 7,000  Level Indianapolis Center
Thu 07:40:40 AM 39.8350 -81.2672 99° East 143 165 7,000  Level Indianapolis Center
Thu 07:41:41 AM 39.8283 -81.2100 99° East 152 175 7,000  Level Indianapolis Center
Thu 07:42:42 AM 39.8225 -81.1564 98° East 151 174 7,000  Level Indianapolis Center
Thu 07:43:43 AM 39.8164 -81.1008 98° East 153 176 7,000  Level Indianapolis Center
Thu 07:45:31 AM 39.8078 -81.0019 96° East 147 169 7,000  Level Cleveland Center
Thu 07:46:31 AM 39.8019 -80.9478 98° East 147 169 7,000  Level Cleveland Center
Thu 07:47:31 AM 39.7958 -80.8939 98° East 147 169 7,000  Level Cleveland Center
Thu 07:48:31 AM 39.7897 -80.8397 98° East 147 169 7,000  Level Cleveland Center
Thu 07:49:31 AM 39.7814 -80.7856 101° East 147 169 7,000  Level Cleveland Center
Thu 07:50:31 AM 39.7753 -80.7289 98° East 147 169 7,000  Level Cleveland Center
Thu 07:51:31 AM 39.7692 -80.6775 99° East 147 169 7,000  Level Cleveland Center
Thu 07:53:00 AM 39.7576 -80.6047 102° East  Level FlightAware Approximate
Thu 08:00:00 AM 39.7054 -80.2605 99° East  Level FlightAware Approximate
Thu 08:01:00 AM 39.6992 -80.2111 99° East  Level FlightAware Approximate
Thu 08:02:00 AM 39.6929 -80.1617 99° East  Level FlightAware Approximate
Thu 08:03:00 AM 39.6866 -80.1123 99° East  Level FlightAware Approximate
Thu 08:04:00 AM 39.6804 -80.0629 99° East  Level FlightAware Approximate
Thu 08:05:00 AM 39.6740 -80.0135 99° East  Level FlightAware Approximate
Thu 08:06:00 AM 39.6677 -79.9641 99° East  Level FlightAware Approximate
Thu 08:07:00 AM 39.6613 -79.9147 99° East  Level FlightAware Approximate
Thu 08:08:00 AM 39.6549 -79.8654 100° East  Level FlightAware Approximate
Thu 08:09:00 AM 39.6485 -79.8160 100° East  Level FlightAware Approximate
Thu 08:10:00 AM 39.6421 -79.7666 100° East  Level FlightAware Approximate
Thu 08:11:00 AM 39.6356 -79.7173 100° East  Level FlightAware Approximate
Thu 08:12:00 AM 39.6292 -79.6680 100° East  Level FlightAware Approximate
Thu 08:13:00 AM 39.6227 -79.6187 100° East  Level FlightAware Approximate
Thu 08:13:09 AM 39.6197 -79.4844 100° East 154 177 7,000  Level Washington Center
Thu 08:14:00 AM 39.6161 -79.5694 100° East  Level FlightAware Approximate
Thu 08:14:07 AM 39.6108 -79.4356 103° East 159 183 7,000  Level Washington Center
Thu 08:15:00 AM 39.6096 -79.5201 100° East  Level FlightAware Approximate
Thu 08:15:08 AM 39.6042 -79.3811 99° East 154 177 7,000  Level Washington Center
Thu 08:16:00 AM 39.6031 -79.4708 100° East  Level FlightAware Approximate
Thu 08:16:09 AM 39.5956 -79.3242 101° East 154 177 7,000  Level Washington Center
Thu 08:17:00 AM 39.5965 -79.4215 100° East  Level FlightAware Approximate
Thu 08:17:07 AM 39.5828 -79.2617 105° East 154 177 7,000  Level Washington Center
Thu 08:18:00 AM 39.5899 -79.3722 100° East  Level FlightAware Approximate
Thu 08:18:08 AM 39.5764 -79.2019 98° East 160 184 7,000  Level Washington Center
Thu 08:19:07 AM 39.5675 -79.1506 103° East 160 184 7,000  Level Washington Center
Thu 08:20:08 AM 39.5608 -79.0936 99° East 160 184 7,000  Level Washington Center
Thu 08:21:07 AM 39.5519 -79.0394 102° East 160 184 7,000  Level Washington Center
Thu 08:22:08 AM 39.5450 -78.9853 99° East 160 184 7,000  Level Washington Center
Thu 08:23:06 AM 39.5383 -78.9283 99° East 160 184 7,000  Level Washington Center
Thu 08:24:07 AM 39.5294 -78.8742 102° East 160 184 7,000  Level Washington Center
Thu 08:25:07 AM 39.5225 -78.8200 99° East 155 178 7,000  Level Washington Center
Thu 08:26:09 AM 39.5156 -78.7658 99° East 155 178 7,000  Level Washington Center
Thu 08:27:09 AM 39.5067 -78.7117 102° East 155 178 7,000  Level Washington Center
Thu 08:28:07 AM 39.4978 -78.6547 101° East 155 178 7,000  Level Washington Center
Thu 08:29:09 AM 39.4928 -78.6036 97° East 150 173 7,000  Level Washington Center
Thu 08:30:09 AM 39.4836 -78.5467 102° East 150 173 7,000  Level Washington Center
Thu 08:31:07 AM 39.4767 -78.4925 99° East 150 173 7,000  Level Washington Center
Thu 08:32:08 AM 39.4675 -78.4383 102° East 145 167 7,000  Level Washington Center
Thu 08:33:09 AM 39.4606 -78.3844 99° East 145 167 7,000  Level Washington Center
Thu 08:34:06 AM 39.4533 -78.3331 100° East 145 167 7,000  Level Washington Center
Thu 08:35:07 AM 39.4464 -78.2764 99° East 145 167 7,000  Level Washington Center
Thu 08:36:08 AM 39.4369 -78.2222 103° East 145 167 7,000  Level Washington Center
Thu 08:37:08 AM 39.4297 -78.1683 100° East 145 167 7,000  Level Washington Center
Thu 08:38:08 AM 39.4228 -78.1142 99° East 145 167 7,000  Level Washington Center
Thu 08:39:06 AM 39.4156 -78.0603 100° East 145 167 7,000  Level Washington Center
Thu 08:40:08 AM 39.4061 -78.0064 103° East 145 167 7,000  Level Washington Center
Thu 08:42:11 AM 39.3833 -77.9000 105° East 155 178 7,000  Level Potomac TRACON
Thu 08:44:11 AM 39.3833 -77.7833 90° East 160 184 7,000  Level Potomac TRACON
Thu 08:45:11 AM 39.3833 -77.7333 90° East 162 186 7,000  Level Potomac TRACON
Thu 08:46:11 AM 39.3667 -77.6667 108° East 162 186 7,000  Level Potomac TRACON
Thu 08:47:11 AM 39.3667 -77.6167 90° East 162 186 7,000  Level Potomac TRACON
Thu 08:48:05 AM 39.3667 -77.5500 90° East 162 186 7,000  Level Potomac TRACON
Thu 08:49:05 AM 39.3667 -77.5000 90° East 162 186 7,000  Level Potomac TRACON
Thu 08:50:00 AM 39.3667 -77.4500 90° East 164 189 7,000  Level Potomac TRACON
Thu 08:51:06 AM 39.3667 -77.3833 90° East 165 190 7,000  Level Potomac TRACON
Thu 08:52:00 AM 39.3500 -77.3333 113° Southeast 163 188 7,000  Level Potomac TRACON
Thu 08:53:00 AM 39.3500 -77.2667 90° East 162 186 7,000  Level Potomac TRACON
Thu 08:54:00 AM 39.3500 -77.2167 90° East 162 186 7,000  Level Potomac TRACON
Thu 08:55:00 AM 39.3500 -77.1500 90° East 163 188 7,000  Level Potomac TRACON
Thu 08:56:00 AM 39.3333 -77.1000 113° Southeast 162 186 7,000  Level Potomac TRACON
Thu 08:56:54 AM 39.3333 -77.0500 90° East 166 191 7,000  Level Potomac TRACON
Thu 08:57:54 AM 39.3167 -77.0000 113° Southeast 153 176 7,000  Level Potomac TRACON
Thu 08:58:54 AM 39.3000 -76.9500 113° Southeast 154 177 7,000  Level Potomac TRACON
Thu 08:59:54 AM 39.2833 -76.9000 113° Southeast 152 175 7,000  Level Potomac TRACON
Thu 09:00:48 AM 39.2500 -76.8500 131° Southeast 151 174 7,000  Level Potomac TRACON
Thu 09:01:48 AM 39.2333 -76.8167 123° Southeast 149 171 7,000  Level Potomac TRACON
Thu 09:02:42 AM 39.2167 -76.7667 113° Southeast 146 168 7,000  Level Potomac TRACON
Thu 09:03:43 AM 39.2000 -76.7167 113° Southeast 138 159 7,000 50 Level Potomac TRACON
Thu 09:04:43 AM 39.1833 -76.6833 123° Southeast 123 142 7,100  Climbing Potomac TRACON
Thu 09:05:37 AM 39.1667 -76.6333 113° Southeast 130 150 7,000 -56 Descending Potomac TRACON
Thu 09:06:31 AM 39.1500 -76.5833 113° Southeast 147 169 7,000  Level Potomac TRACON
Thu 09:07:31 AM 39.1333 -76.5500 123° Southeast 149 171 7,000  Level Potomac TRACON
Thu 09:08:31 AM 39.1167 -76.5000 113° Southeast 150 173 7,000  Level Potomac TRACON
Thu 09:09:31 AM 39.0833 -76.4500 131° Southeast 149 171 7,000  Level Potomac TRACON
Thu 09:10:25 AM 39.0667 -76.4000 113° Southeast 148 170 7,000  Level Potomac TRACON
Thu 09:11:25 AM 39.0500 -76.3500 113° Southeast 149 171 7,000  Level Potomac TRACON
Thu 09:12:25 AM 39.0333 -76.3000 113° Southeast 148 170 7,000  Level Potomac TRACON
Thu 09:13:25 AM 39.0167 -76.2500 113° Southeast 148 170 7,000  Level Potomac TRACON
Thu 09:14:25 AM 39.0000 -76.2167 123° Southeast 148 170 7,000  Level Potomac TRACON
Thu 09:15:25 AM 38.9833 -76.1667 113° Southeast 149 171 7,000  Level Potomac TRACON
Thu 09:16:25 AM 38.9667 -76.1167 113° Southeast 148 170 7,000  Level Potomac TRACON
Thu 09:18:00 AM 38.9406 -76.0426 114° Southeast  Level FlightAware Approximate
Thu 09:25:00 AM 38.8213 -75.7230 104° East  Level FlightAware Approximate
Thu 09:26:00 AM 38.8051 -75.6768 123° Southeast  Level FlightAware Approximate
Thu 09:27:00 AM 38.7835 -75.6337 123° Southeast  Level FlightAware Approximate
Thu 09:28:00 AM 38.7713 -75.5851 108° East  Level FlightAware Approximate
Thu 09:29:00 AM 38.7533 -75.5398 123° Southeast  Level FlightAware Approximate
Thu 09:30:00 AM 38.7322 -75.4964 113° Southeast  Level FlightAware Approximate
Thu 09:31:00 AM 38.7165 -75.4494 113° Southeast  Level FlightAware Approximate
Thu 09:32:00 AM 38.7008 -75.4023 113° Southeast  Level FlightAware Approximate
Thu 09:33:00 AM 38.6851 -75.3553 113° Southeast  Level FlightAware Approximate
Thu 09:34:00 AM 38.6833 -75.3500 113° Southeast  Level FlightAware Approximate
Thu 09:35:00 AM 38.6879 -75.3584 113° Southeast  Level Estimated
Thu 09:36:00 AM 38.6879 -75.3584 113° Southeast  Level Estimated
Thu 09:37:00 AM 38.6879 -75.3584 113° Southeast  Level Estimated
Thu 09:38:00 AM 38.6879 -75.3584 113° Southeast  Level Estimated

Login

Don't have an account? Register now (free) for customized features, flight alerts, and more!